sensor_id;sensor_type;location;lat;lon;timestamp;temperature;humidity
54938;DHT22;52756;52.826;6.214;2024-02-23T00:02:20;7.20;90.80
54938;DHT22;52756;52.826;6.214;2024-02-23T00:04:46;7.20;90.90
54938;DHT22;52756;52.826;6.214;2024-02-23T00:07:11;8.00;91.00
54938;DHT22;52756;52.826;6.214;2024-02-23T00:09:37;7.20;90.70
54938;DHT22;52756;52.826;6.214;2024-02-23T00:12:03;7.20;90.60
54938;DHT22;52756;52.826;6.214;2024-02-23T00:14:32;7.20;90.50
54938;DHT22;52756;52.826;6.214;2024-02-23T00:16:58;7.20;90.40
54938;DHT22;52756;52.826;6.214;2024-02-23T00:19:24;7.10;90.40
54938;DHT22;52756;52.826;6.214;2024-02-23T00:21:50;7.10;90.40
54938;DHT22;52756;52.826;6.214;2024-02-23T00:24:18;7.10;90.40
54938;DHT22;52756;52.826;6.214;2024-02-23T00:26:45;7.90;90.80
54938;DHT22;52756;52.826;6.214;2024-02-23T00:29:11;7.10;90.60
54938;DHT22;52756;52.826;6.214;2024-02-23T00:31:40;7.40;90.60
54938;DHT22;52756;52.826;6.214;2024-02-23T00:34:10;7.00;90.40
54938;DHT22;52756;52.826;6.214;2024-02-23T00:36:42;7.00;90.40
54938;DHT22;52756;52.826;6.214;2024-02-23T00:39:08;7.00;90.30
54938;DHT22;52756;52.826;6.214;2024-02-23T00:41:34;7.00;90.30
54938;DHT22;52756;52.826;6.214;2024-02-23T00:44:00;7.00;90.30
54938;DHT22;52756;52.826;6.214;2024-02-23T00:46:26;7.00;90.30
54938;DHT22;52756;52.826;6.214;2024-02-23T00:48:52;6.90;90.30
54938;DHT22;52756;52.826;6.214;2024-02-23T00:51:17;6.90;90.30
54938;DHT22;52756;52.826;6.214;2024-02-23T00:53:43;6.90;90.30
54938;DHT22;52756;52.826;6.214;2024-02-23T00:56:09;6.90;90.40
54938;DHT22;52756;52.826;6.214;2024-02-23T00:58:34;6.90;90.50
54938;DHT22;52756;52.826;6.214;2024-02-23T01:01:00;6.90;90.50
54938;DHT22;52756;52.826;6.214;2024-02-23T01:03:26;6.90;90.50
54938;DHT22;52756;52.826;6.214;2024-02-23T01:05:51;6.90;90.60
54938;DHT22;52756;52.826;6.214;2024-02-23T01:08:17;6.90;90.60
54938;DHT22;52756;52.826;6.214;2024-02-23T01:10:43;6.90;90.60
54938;DHT22;52756;52.826;6.214;2024-02-23T01:13:09;6.90;90.60
54938;DHT22;52756;52.826;6.214;2024-02-23T01:15:34;6.90;90.70
54938;DHT22;52756;52.826;6.214;2024-02-23T01:18:00;6.90;90.70
54938;DHT22;52756;52.826;6.214;2024-02-23T01:20:25;6.90;90.80
54938;DHT22;52756;52.826;6.214;2024-02-23T01:22:51;6.90;90.90
54938;DHT22;52756;52.826;6.214;2024-02-23T01:25:17;7.00;90.90
54938;DHT22;52756;52.826;6.214;2024-02-23T01:27:43;7.00;91.00
54938;DHT22;52756;52.826;6.214;2024-02-23T01:30:10;7.30;91.10
54938;DHT22;52756;52.826;6.214;2024-02-23T01:32:36;7.00;91.10
54938;DHT22;52756;52.826;6.214;2024-02-23T01:35:05;7.00;91.10
54938;DHT22;52756;52.826;6.214;2024-02-23T01:37:31;7.00;91.20
54938;DHT22;52756;52.826;6.214;2024-02-23T01:39:57;7.00;91.20
54938;DHT22;52756;52.826;6.214;2024-02-23T01:42:22;7.00;91.30
54938;DHT22;52756;52.826;6.214;2024-02-23T01:44:49;7.00;91.30
54938;DHT22;52756;52.826;6.214;2024-02-23T01:47:15;7.00;91.40
54938;DHT22;52756;52.826;6.214;2024-02-23T01:49:41;7.00;91.40
54938;DHT22;52756;52.826;6.214;2024-02-23T01:52:07;7.00;91.40
54938;DHT22;52756;52.826;6.214;2024-02-23T01:54:33;7.10;91.40
54938;DHT22;52756;52.826;6.214;2024-02-23T01:57:00;7.10;91.40
54938;DHT22;52756;52.826;6.214;2024-02-23T01:59:26;7.10;91.30
54938;DHT22;52756;52.826;6.214;2024-02-23T02:01:53;7.10;91.20
54938;DHT22;52756;52.826;6.214;2024-02-23T02:04:19;7.10;91.20
54938;DHT22;52756;52.826;6.214;2024-02-23T02:06:46;7.10;91.10
54938;DHT22;52756;52.826;6.214;2024-02-23T02:09:12;7.10;91.00
54938;DHT22;52756;52.826;6.214;2024-02-23T02:11:50;7.20;91.00
54938;DHT22;52756;52.826;6.214;2024-02-23T02:14:16;7.10;90.90
54938;DHT22;52756;52.826;6.214;2024-02-23T02:16:42;7.20;90.90
54938;DHT22;52756;52.826;6.214;2024-02-23T02:19:09;7.20;90.90
54938;DHT22;52756;52.826;6.214;2024-02-23T02:21:35;7.20;90.90
54938;DHT22;52756;52.826;6.214;2024-02-23T02:24:01;7.20;90.80
54938;DHT22;52756;52.826;6.214;2024-02-23T02:26:28;7.20;90.80
54938;DHT22;52756;52.826;6.214;2024-02-23T02:28:54;7.20;90.70
54938;DHT22;52756;52.826;6.214;2024-02-23T02:31:19;7.20;90.60
54938;DHT22;52756;52.826;6.214;2024-02-23T02:33:45;7.20;90.60
54938;DHT22;52756;52.826;6.214;2024-02-23T02:36:10;7.20;90.50
54938;DHT22;52756;52.826;6.214;2024-02-23T02:38:37;7.20;90.40
54938;DHT22;52756;52.826;6.214;2024-02-23T02:41:03;7.20;90.30
54938;DHT22;52756;52.826;6.214;2024-02-23T02:43:28;7.20;90.10
54938;DHT22;52756;52.826;6.214;2024-02-23T02:45:54;7.20;90.00
54938;DHT22;52756;52.826;6.214;2024-02-23T02:48:20;7.20;89.90
54938;DHT22;52756;52.826;6.214;2024-02-23T02:50:45;7.20;89.50
54938;DHT22;52756;52.826;6.214;2024-02-23T02:53:11;7.20;89.50
54938;DHT22;52756;52.826;6.214;2024-02-23T02:55:41;7.70;89.30
54938;DHT22;52756;52.826;6.214;2024-02-23T02:58:06;7.20;88.90
54938;DHT22;52756;52.826;6.214;2024-02-23T03:00:32;7.20;88.60
54938;DHT22;52756;52.826;6.214;2024-02-23T03:02:57;7.20;88.30
54938;DHT22;52756;52.826;6.214;2024-02-23T03:05:23;7.10;88.00
54938;DHT22;52756;52.826;6.214;2024-02-23T03:07:49;7.20;88.10
54938;DHT22;52756;52.826;6.214;2024-02-23T03:10:14;7.10;87.80
54938;DHT22;52756;52.826;6.214;2024-02-23T03:12:41;7.10;87.80
54938;DHT22;52756;52.826;6.214;2024-02-23T03:15:07;7.30;87.70
54938;DHT22;52756;52.826;6.214;2024-02-23T03:17:34;7.10;87.60
54938;DHT22;52756;52.826;6.214;2024-02-23T03:19:59;7.10;87.50
54938;DHT22;52756;52.826;6.214;2024-02-23T03:22:25;7.10;87.20
54938;DHT22;52756;52.826;6.214;2024-02-23T03:24:51;7.00;86.90
54938;DHT22;52756;52.826;6.214;2024-02-23T03:27:16;7.00;87.00
54938;DHT22;52756;52.826;6.214;2024-02-23T03:29:42;7.00;87.00
54938;DHT22;52756;52.826;6.214;2024-02-23T03:32:08;7.00;87.20
54938;DHT22;52756;52.826;6.214;2024-02-23T03:34:33;7.00;87.30
54938;DHT22;52756;52.826;6.214;2024-02-23T03:36:59;7.80;87.70
54938;DHT22;52756;52.826;6.214;2024-02-23T03:39:26;7.00;87.40
54938;DHT22;52756;52.826;6.214;2024-02-23T03:41:53;7.00;87.40
54938;DHT22;52756;52.826;6.214;2024-02-23T03:44:19;7.00;87.70
54938;DHT22;52756;52.826;6.214;2024-02-23T03:46:44;7.00;87.80
54938;DHT22;52756;52.826;6.214;2024-02-23T03:49:10;7.00;88.00
54938;DHT22;52756;52.826;6.214;2024-02-23T03:51:37;7.00;88.10
54938;DHT22;52756;52.826;6.214;2024-02-23T03:54:05;7.00;88.30
54938;DHT22;52756;52.826;6.214;2024-02-23T03:56:40;7.60;88.80
54938;DHT22;52756;52.826;6.214;2024-02-23T03:59:07;7.00;88.50
54938;DHT22;52756;52.826;6.214;2024-02-23T04:01:35;7.00;88.70
54938;DHT22;52756;52.826;6.214;2024-02-23T04:04:01;7.00;88.80
54938;DHT22;52756;52.826;6.214;2024-02-23T04:06:27;7.00;88.80
54938;DHT22;52756;52.826;6.214;2024-02-23T04:08:53;7.00;88.90
54938;DHT22;52756;52.826;6.214;2024-02-23T04:11:18;7.00;89.00
54938;DHT22;52756;52.826;6.214;2024-02-23T04:13:44;7.00;89.10
54938;DHT22;52756;52.826;6.214;2024-02-23T04:16:10;7.00;89.10
54938;DHT22;52756;52.826;6.214;2024-02-23T04:18:35;7.00;89.20
54938;DHT22;52756;52.826;6.214;2024-02-23T04:21:01;7.00;89.20
54938;DHT22;52756;52.826;6.214;2024-02-23T04:23:27;7.00;89.10
54938;DHT22;52756;52.826;6.214;2024-02-23T04:25:52;7.00;89.00
54938;DHT22;52756;52.826;6.214;2024-02-23T04:28:18;6.90;88.90
54938;DHT22;52756;52.826;6.214;2024-02-23T04:30:43;7.40;89.50
54938;DHT22;52756;52.826;6.214;2024-02-23T04:33:09;6.90;88.60
54938;DHT22;52756;52.826;6.214;2024-02-23T04:35:34;6.90;88.60
54938;DHT22;52756;52.826;6.214;2024-02-23T04:38:00;6.90;88.60
54938;DHT22;52756;52.826;6.214;2024-02-23T04:40:26;6.90;88.60
54938;DHT22;52756;52.826;6.214;2024-02-23T04:42:51;6.90;88.90
54938;DHT22;52756;52.826;6.214;2024-02-23T04:45:17;6.80;88.90
54938;DHT22;52756;52.826;6.214;2024-02-23T04:47:42;6.80;89.30
54938;DHT22;52756;52.826;6.214;2024-02-23T04:50:08;6.80;88.80
54938;DHT22;52756;52.826;6.214;2024-02-23T04:52:34;6.80;88.80
54938;DHT22;52756;52.826;6.214;2024-02-23T04:55:00;6.80;89.00
54938;DHT22;52756;52.826;6.214;2024-02-23T04:57:25;6.80;89.20
54938;DHT22;52756;52.826;6.214;2024-02-23T04:59:51;6.80;89.50
54938;DHT22;52756;52.826;6.214;2024-02-23T05:02:16;6.80;89.70
54938;DHT22;52756;52.826;6.214;2024-02-23T05:04:42;6.70;89.80
54938;DHT22;52756;52.826;6.214;2024-02-23T05:07:07;6.70;90.00
54938;DHT22;52756;52.826;6.214;2024-02-23T05:09:33;6.70;90.10
54938;DHT22;52756;52.826;6.214;2024-02-23T05:12:00;6.70;90.10
54938;DHT22;52756;52.826;6.214;2024-02-23T05:14:26;6.70;90.20
54938;DHT22;52756;52.826;6.214;2024-02-23T05:16:52;6.70;90.30
54938;DHT22;52756;52.826;6.214;2024-02-23T05:19:17;6.70;90.30
54938;DHT22;52756;52.826;6.214;2024-02-23T05:21:43;6.70;90.30
54938;DHT22;52756;52.826;6.214;2024-02-23T05:24:10;6.70;90.30
54938;DHT22;52756;52.826;6.214;2024-02-23T05:26:36;6.70;90.30
54938;DHT22;52756;52.826;6.214;2024-02-23T05:29:01;6.70;90.40
54938;DHT22;52756;52.826;6.214;2024-02-23T05:31:48;6.70;90.40
54938;DHT22;52756;52.826;6.214;2024-02-23T05:34:14;6.70;90.40
54938;DHT22;52756;52.826;6.214;2024-02-23T05:36:40;6.70;90.50
54938;DHT22;52756;52.826;6.214;2024-02-23T05:39:06;6.90;90.50
54938;DHT22;52756;52.826;6.214;2024-02-23T05:41:33;6.70;90.50
54938;DHT22;52756;52.826;6.214;2024-02-23T05:43:59;6.70;90.50
54938;DHT22;52756;52.826;6.214;2024-02-23T05:46:24;6.70;90.50
54938;DHT22;52756;52.826;6.214;2024-02-23T05:48:50;6.60;90.50
54938;DHT22;52756;52.826;6.214;2024-02-23T05:51:15;6.70;90.50
54938;DHT22;52756;52.826;6.214;2024-02-23T05:53:41;6.60;90.40
54938;DHT22;52756;52.826;6.214;2024-02-23T05:56:07;6.60;90.40
54938;DHT22;52756;52.826;6.214;2024-02-23T05:58:33;6.60;90.30
54938;DHT22;52756;52.826;6.214;2024-02-23T06:00:58;6.60;90.30
54938;DHT22;52756;52.826;6.214;2024-02-23T06:03:24;6.60;90.50
54938;DHT22;52756;52.826;6.214;2024-02-23T06:05:49;6.60;90.30
54938;DHT22;52756;52.826;6.214;2024-02-23T06:08:15;6.60;90.30
54938;DHT22;52756;52.826;6.214;2024-02-23T06:10:40;6.60;90.20
54938;DHT22;52756;52.826;6.214;2024-02-23T06:13:08;6.60;90.20
54938;DHT22;52756;52.826;6.214;2024-02-23T06:15:34;6.60;90.20
54938;DHT22;52756;52.826;6.214;2024-02-23T06:18:02;6.60;90.20
54938;DHT22;52756;52.826;6.214;2024-02-23T06:20:27;6.60;90.10
54938;DHT22;52756;52.826;6.214;2024-02-23T06:22:53;6.60;90.00
54938;DHT22;52756;52.826;6.214;2024-02-23T06:25:19;6.60;90.00
54938;DHT22;52756;52.826;6.214;2024-02-23T06:27:44;6.50;90.00
54938;DHT22;52756;52.826;6.214;2024-02-23T06:30:10;6.50;90.20
54938;DHT22;52756;52.826;6.214;2024-02-23T06:32:36;6.50;90.10
54938;DHT22;52756;52.826;6.214;2024-02-23T06:35:02;6.50;90.10
54938;DHT22;52756;52.826;6.214;2024-02-23T06:37:28;6.50;90.20
54938;DHT22;52756;52.826;6.214;2024-02-23T06:39:54;6.50;90.20
54938;DHT22;52756;52.826;6.214;2024-02-23T06:42:20;6.50;90.30
54938;DHT22;52756;52.826;6.214;2024-02-23T06:44:47;6.50;90.30
54938;DHT22;52756;52.826;6.214;2024-02-23T06:47:12;6.40;90.30
54938;DHT22;52756;52.826;6.214;2024-02-23T06:49:42;6.50;90.30
54938;DHT22;52756;52.826;6.214;2024-02-23T06:52:08;6.40;90.30
54938;DHT22;52756;52.826;6.214;2024-02-23T06:54:34;6.40;90.30
54938;DHT22;52756;52.826;6.214;2024-02-23T06:57:00;6.40;90.30
54938;DHT22;52756;52.826;6.214;2024-02-23T06:59:25;7.20;90.60
54938;DHT22;52756;52.826;6.214;2024-02-23T07:01:51;6.40;90.40
54938;DHT22;52756;52.826;6.214;2024-02-23T07:04:17;6.40;90.40
54938;DHT22;52756;52.826;6.214;2024-02-23T07:06:43;6.40;90.50
54938;DHT22;52756;52.826;6.214;2024-02-23T07:09:09;6.40;90.40
54938;DHT22;52756;52.826;6.214;2024-02-23T07:11:37;6.40;90.30
54938;DHT22;52756;52.826;6.214;2024-02-23T07:14:02;6.40;90.20
54938;DHT22;52756;52.826;6.214;2024-02-23T07:16:28;6.40;90.20
54938;DHT22;52756;52.826;6.214;2024-02-23T07:18:53;6.40;90.10
54938;DHT22;52756;52.826;6.214;2024-02-23T07:21:20;6.40;90.10
54938;DHT22;52756;52.826;6.214;2024-02-23T07:23:46;6.30;90.10
54938;DHT22;52756;52.826;6.214;2024-02-23T07:26:12;6.30;90.10
54938;DHT22;52756;52.826;6.214;2024-02-23T07:28:37;6.30;90.10
54938;DHT22;52756;52.826;6.214;2024-02-23T07:31:03;6.30;90.00
54938;DHT22;52756;52.826;6.214;2024-02-23T07:33:28;6.30;90.00
54938;DHT22;52756;52.826;6.214;2024-02-23T07:35:54;6.30;90.00
54938;DHT22;52756;52.826;6.214;2024-02-23T07:38:20;6.20;90.00
54938;DHT22;52756;52.826;6.214;2024-02-23T07:40:45;6.20;90.00
54938;DHT22;52756;52.826;6.214;2024-02-23T07:43:11;6.20;90.10
54938;DHT22;52756;52.826;6.214;2024-02-23T07:45:37;6.20;90.20
54938;DHT22;52756;52.826;6.214;2024-02-23T07:48:03;6.20;90.30
54938;DHT22;52756;52.826;6.214;2024-02-23T07:50:29;6.20;90.40
54938;DHT22;52756;52.826;6.214;2024-02-23T07:52:54;6.20;90.40
54938;DHT22;52756;52.826;6.214;2024-02-23T07:55:20;6.20;90.40
54938;DHT22;52756;52.826;6.214;2024-02-23T07:57:46;6.20;90.40
54938;DHT22;52756;52.826;6.214;2024-02-23T08:00:12;6.30;90.40
54938;DHT22;52756;52.826;6.214;2024-02-23T08:02:38;6.30;90.30
54938;DHT22;52756;52.826;6.214;2024-02-23T08:05:04;6.30;90.30
54938;DHT22;52756;52.826;6.214;2024-02-23T08:07:29;6.30;90.30
54938;DHT22;52756;52.826;6.214;2024-02-23T08:09:56;6.30;90.20
54938;DHT22;52756;52.826;6.214;2024-02-23T08:12:22;6.30;90.20
54938;DHT22;52756;52.826;6.214;2024-02-23T08:14:48;6.30;90.10
54938;DHT22;52756;52.826;6.214;2024-02-23T08:17:14;6.40;90.10
54938;DHT22;52756;52.826;6.214;2024-02-23T08:19:40;6.40;90.00
54938;DHT22;52756;52.826;6.214;2024-02-23T08:22:06;6.40;90.00
54938;DHT22;52756;52.826;6.214;2024-02-23T08:24:31;6.80;90.00
54938;DHT22;52756;52.826;6.214;2024-02-23T08:26:57;6.50;89.90
54938;DHT22;52756;52.826;6.214;2024-02-23T08:29:22;7.10;90.10
54938;DHT22;52756;52.826;6.214;2024-02-23T08:31:48;6.50;90.00
54938;DHT22;52756;52.826;6.214;2024-02-23T08:34:14;6.50;89.90
54938;DHT22;52756;52.826;6.214;2024-02-23T08:36:40;6.50;90.00
54938;DHT22;52756;52.826;6.214;2024-02-23T08:39:05;6.60;89.90
54938;DHT22;52756;52.826;6.214;2024-02-23T08:41:31;6.60;90.00
54938;DHT22;52756;52.826;6.214;2024-02-23T08:43:57;6.60;89.90
54938;DHT22;52756;52.826;6.214;2024-02-23T08:46:22;6.60;89.90
54938;DHT22;52756;52.826;6.214;2024-02-23T08:48:48;6.70;90.00
54938;DHT22;52756;52.826;6.214;2024-02-23T08:51:13;6.70;89.90
54938;DHT22;52756;52.826;6.214;2024-02-23T08:53:39;6.70;89.80
54938;DHT22;52756;52.826;6.214;2024-02-23T08:56:10;6.70;89.80
54938;DHT22;52756;52.826;6.214;2024-02-23T08:58:36;6.80;89.80
54938;DHT22;52756;52.826;6.214;2024-02-23T09:01:02;6.80;89.80
54938;DHT22;52756;52.826;6.214;2024-02-23T09:03:29;6.80;89.60
54938;DHT22;52756;52.826;6.214;2024-02-23T09:05:55;6.90;89.40
54938;DHT22;52756;52.826;6.214;2024-02-23T09:08:21;7.00;89.20
54938;DHT22;52756;52.826;6.214;2024-02-23T09:10:46;7.00;89.00
54938;DHT22;52756;52.826;6.214;2024-02-23T09:13:12;7.00;88.80
54938;DHT22;52756;52.826;6.214;2024-02-23T09:15:37;7.10;88.60
54938;DHT22;52756;52.826;6.214;2024-02-23T09:18:03;7.10;88.30
54938;DHT22;52756;52.826;6.214;2024-02-23T09:20:29;7.10;87.90
54938;DHT22;52756;52.826;6.214;2024-02-23T09:22:54;7.20;87.10
54938;DHT22;52756;52.826;6.214;2024-02-23T09:25:20;7.20;87.00
54938;DHT22;52756;52.826;6.214;2024-02-23T09:27:46;7.20;86.60
54938;DHT22;52756;52.826;6.214;2024-02-23T09:30:13;7.20;86.30
54938;DHT22;52756;52.826;6.214;2024-02-23T09:32:38;7.30;86.00
54938;DHT22;52756;52.826;6.214;2024-02-23T09:35:04;7.30;86.20
54938;DHT22;52756;52.826;6.214;2024-02-23T09:37:31;7.30;86.10
54938;DHT22;52756;52.826;6.214;2024-02-23T09:39:57;7.30;85.80
54938;DHT22;52756;52.826;6.214;2024-02-23T09:42:23;7.30;85.70
54938;DHT22;52756;52.826;6.214;2024-02-23T09:44:59;8.00;86.10
54938;DHT22;52756;52.826;6.214;2024-02-23T09:47:27;7.40;85.40
54938;DHT22;52756;52.826;6.214;2024-02-23T09:49:54;7.50;85.10
54938;DHT22;52756;52.826;6.214;2024-02-23T09:52:21;7.50;84.60
54938;DHT22;52756;52.826;6.214;2024-02-23T09:54:48;7.50;84.40
54938;DHT22;52756;52.826;6.214;2024-02-23T09:57:15;7.50;84.00
54938;DHT22;52756;52.826;6.214;2024-02-23T09:59:41;7.60;84.30
54938;DHT22;52756;52.826;6.214;2024-02-23T10:02:15;7.60;84.30
54938;DHT22;52756;52.826;6.214;2024-02-23T10:04:42;7.70;84.20
54938;DHT22;52756;52.826;6.214;2024-02-23T10:07:09;7.70;83.70
54938;DHT22;52756;52.826;6.214;2024-02-23T10:09:35;7.70;83.80
54938;DHT22;52756;52.826;6.214;2024-02-23T10:12:04;7.70;83.70
54938;DHT22;52756;52.826;6.214;2024-02-23T10:14:29;7.70;83.90
54938;DHT22;52756;52.826;6.214;2024-02-23T10:16:55;7.70;84.00
54938;DHT22;52756;52.826;6.214;2024-02-23T10:19:21;7.70;83.90
54938;DHT22;52756;52.826;6.214;2024-02-23T10:21:47;8.10;84.00
54938;DHT22;52756;52.826;6.214;2024-02-23T10:24:15;7.80;83.80
54938;DHT22;52756;52.826;6.214;2024-02-23T10:26:41;7.80;83.90
54938;DHT22;52756;52.826;6.214;2024-02-23T10:29:07;7.80;84.20
54938;DHT22;52756;52.826;6.214;2024-02-23T10:31:35;7.80;84.20
54938;DHT22;52756;52.826;6.214;2024-02-23T10:34:09;7.80;84.10
54938;DHT22;52756;52.826;6.214;2024-02-23T10:36:40;7.90;84.00
54938;DHT22;52756;52.826;6.214;2024-02-23T10:39:07;7.90;83.70
54938;DHT22;52756;52.826;6.214;2024-02-23T10:41:35;7.90;83.90
54938;DHT22;52756;52.826;6.214;2024-02-23T10:44:03;7.90;84.00
54938;DHT22;52756;52.826;6.214;2024-02-23T10:46:31;7.90;84.00
54938;DHT22;52756;52.826;6.214;2024-02-23T10:48:58;7.90;83.70
54938;DHT22;52756;52.826;6.214;2024-02-23T10:51:28;8.00;83.90
54938;DHT22;52756;52.826;6.214;2024-02-23T10:53:55;8.00;83.90
54938;DHT22;52756;52.826;6.214;2024-02-23T10:56:21;8.00;83.70
54938;DHT22;52756;52.826;6.214;2024-02-23T10:58:48;8.10;83.60
54938;DHT22;52756;52.826;6.214;2024-02-23T11:01:14;8.10;83.70
54938;DHT22;52756;52.826;6.214;2024-02-23T11:03:42;8.10;83.70
54938;DHT22;52756;52.826;6.214;2024-02-23T11:06:10;8.10;83.60
54938;DHT22;52756;52.826;6.214;2024-02-23T11:08:36;8.20;83.70
54938;DHT22;52756;52.826;6.214;2024-02-23T11:11:08;8.10;83.30
54938;DHT22;52756;52.826;6.214;2024-02-23T11:13:38;8.20;82.90
54938;DHT22;52756;52.826;6.214;2024-02-23T11:16:05;8.80;83.40
54938;DHT22;52756;52.826;6.214;2024-02-23T11:18:31;8.20;82.90
54938;DHT22;52756;52.826;6.214;2024-02-23T11:21:02;8.20;82.60
54938;DHT22;52756;52.826;6.214;2024-02-23T11:24:01;8.20;82.50
54938;DHT22;52756;52.826;6.214;2024-02-23T11:26:27;8.30;82.20
54938;DHT22;52756;52.826;6.214;2024-02-23T11:28:54;8.20;82.40
54938;DHT22;52756;52.826;6.214;2024-02-23T11:31:20;8.20;82.40
54938;DHT22;52756;52.826;6.214;2024-02-23T11:33:51;8.20;82.70
54938;DHT22;52756;52.826;6.214;2024-02-23T11:36:30;8.20;82.90
54938;DHT22;52756;52.826;6.214;2024-02-23T11:38:58;8.20;82.80
54938;DHT22;52756;52.826;6.214;2024-02-23T11:41:25;8.20;82.90
54938;DHT22;52756;52.826;6.214;2024-02-23T11:43:52;8.20;82.90
54938;DHT22;52756;52.826;6.214;2024-02-23T11:46:18;8.10;83.00
54938;DHT22;52756;52.826;6.214;2024-02-23T11:48:45;8.20;83.80
54938;DHT22;52756;52.826;6.214;2024-02-23T11:51:15;8.20;83.40
54938;DHT22;52756;52.826;6.214;2024-02-23T11:53:41;8.10;83.40
54938;DHT22;52756;52.826;6.214;2024-02-23T11:56:07;8.10;83.60
54938;DHT22;52756;52.826;6.214;2024-02-23T11:58:33;8.10;83.80
54938;DHT22;52756;52.826;6.214;2024-02-23T12:01:02;8.10;83.80
54938;DHT22;52756;52.826;6.214;2024-02-23T12:03:31;8.10;84.10
54938;DHT22;52756;52.826;6.214;2024-02-23T12:06:02;8.10;84.30
54938;DHT22;52756;52.826;6.214;2024-02-23T12:08:31;8.10;84.20
54938;DHT22;52756;52.826;6.214;2024-02-23T12:11:03;8.20;84.20
54938;DHT22;52756;52.826;6.214;2024-02-23T12:13:29;8.20;84.10
54938;DHT22;52756;52.826;6.214;2024-02-23T12:15:55;8.10;84.40
54938;DHT22;52756;52.826;6.214;2024-02-23T12:18:22;8.10;84.00
54938;DHT22;52756;52.826;6.214;2024-02-23T12:21:02;8.20;84.30
54938;DHT22;52756;52.826;6.214;2024-02-23T12:23:43;8.20;84.20
54938;DHT22;52756;52.826;6.214;2024-02-23T12:26:13;8.20;84.10
54938;DHT22;52756;52.826;6.214;2024-02-23T12:28:39;8.20;84.30
54938;DHT22;52756;52.826;6.214;2024-02-23T12:31:06;8.10;84.30
54938;DHT22;52756;52.826;6.214;2024-02-23T12:33:33;8.20;84.40
54938;DHT22;52756;52.826;6.214;2024-02-23T12:36:04;8.20;84.40
54938;DHT22;52756;52.826;6.214;2024-02-23T12:38:30;8.20;84.50
54938;DHT22;52756;52.826;6.214;2024-02-23T12:40:56;8.90;84.90
54938;DHT22;52756;52.826;6.214;2024-02-23T12:43:22;8.20;84.40
54938;DHT22;52756;52.826;6.214;2024-02-23T12:45:50;8.30;84.50
54938;DHT22;52756;52.826;6.214;2024-02-23T12:48:17;8.30;84.40
54938;DHT22;52756;52.826;6.214;2024-02-23T12:50:43;8.30;84.40
54938;DHT22;52756;52.826;6.214;2024-02-23T12:53:53;8.30;84.30
54938;DHT22;52756;52.826;6.214;2024-02-23T12:56:07;8.30;84.20
54938;DHT22;52756;52.826;6.214;2024-02-23T12:58:37;8.30;84.30
54938;DHT22;52756;52.826;6.214;2024-02-23T13:01:03;8.40;84.10
54938;DHT22;52756;52.826;6.214;2024-02-23T13:03:29;8.40;84.20
54938;DHT22;52756;52.826;6.214;2024-02-23T13:05:56;8.40;84.10
54938;DHT22;52756;52.826;6.214;2024-02-23T13:08:22;8.40;84.00
54938;DHT22;52756;52.826;6.214;2024-02-23T13:10:49;8.40;84.10
54938;DHT22;52756;52.826;6.214;2024-02-23T13:13:15;8.50;84.30
54938;DHT22;52756;52.826;6.214;2024-02-23T13:15:41;8.50;84.30
54938;DHT22;52756;52.826;6.214;2024-02-23T13:18:07;8.50;84.40
54938;DHT22;52756;52.826;6.214;2024-02-23T13:20:33;8.50;84.50
54938;DHT22;52756;52.826;6.214;2024-02-23T13:22:59;8.50;84.50
54938;DHT22;52756;52.826;6.214;2024-02-23T13:25:24;8.60;84.60
54938;DHT22;52756;52.826;6.214;2024-02-23T13:27:50;8.60;84.50
54938;DHT22;52756;52.826;6.214;2024-02-23T13:30:15;8.60;84.10
54938;DHT22;52756;52.826;6.214;2024-02-23T13:32:41;8.60;83.90
54938;DHT22;52756;52.826;6.214;2024-02-23T13:35:07;8.60;83.90
54938;DHT22;52756;52.826;6.214;2024-02-23T13:37:34;8.60;83.90
54938;DHT22;52756;52.826;6.214;2024-02-23T13:40:00;8.60;83.70
54938;DHT22;52756;52.826;6.214;2024-02-23T13:42:26;8.70;83.50
54938;DHT22;52756;52.826;6.214;2024-02-23T13:44:51;8.70;83.30
54938;DHT22;52756;52.826;6.214;2024-02-23T13:47:17;8.60;83.10
54938;DHT22;52756;52.826;6.214;2024-02-23T13:49:43;9.40;83.90
54938;DHT22;52756;52.826;6.214;2024-02-23T13:52:08;9.00;83.60
54938;DHT22;52756;52.826;6.214;2024-02-23T13:54:34;8.70;83.20
54938;DHT22;52756;52.826;6.214;2024-02-23T13:57:00;8.70;83.20
54938;DHT22;52756;52.826;6.214;2024-02-23T13:59:25;8.70;83.20
54938;DHT22;52756;52.826;6.214;2024-02-23T14:01:51;8.70;83.30
54938;DHT22;52756;52.826;6.214;2024-02-23T14:04:17;8.70;83.40
54938;DHT22;52756;52.826;6.214;2024-02-23T14:06:42;8.70;83.40
54938;DHT22;52756;52.826;6.214;2024-02-23T14:09:09;8.70;83.40
54938;DHT22;52756;52.826;6.214;2024-02-23T14:11:35;8.70;83.40
54938;DHT22;52756;52.826;6.214;2024-02-23T14:14:00;8.70;83.00
54938;DHT22;52756;52.826;6.214;2024-02-23T14:16:28;8.70;82.90
54938;DHT22;52756;52.826;6.214;2024-02-23T14:18:54;8.70;82.90
54938;DHT22;52756;52.826;6.214;2024-02-23T14:21:19;8.70;83.00
54938;DHT22;52756;52.826;6.214;2024-02-23T14:23:46;8.70;83.10
54938;DHT22;52756;52.826;6.214;2024-02-23T14:26:12;8.70;83.10
54938;DHT22;52756;52.826;6.214;2024-02-23T14:28:38;8.70;83.20
54938;DHT22;52756;52.826;6.214;2024-02-23T14:31:04;8.70;83.50
54938;DHT22;52756;52.826;6.214;2024-02-23T14:33:30;8.80;83.60
54938;DHT22;52756;52.826;6.214;2024-02-23T14:35:55;8.80;83.70
54938;DHT22;52756;52.826;6.214;2024-02-23T14:38:21;8.80;83.50
54938;DHT22;52756;52.826;6.214;2024-02-23T14:40:48;8.80;83.30
54938;DHT22;52756;52.826;6.214;2024-02-23T14:43:13;8.80;83.20
54938;DHT22;52756;52.826;6.214;2024-02-23T14:45:39;8.80;83.20
54938;DHT22;52756;52.826;6.214;2024-02-23T14:48:05;8.80;83.10
54938;DHT22;52756;52.826;6.214;2024-02-23T14:50:31;8.90;82.90
54938;DHT22;52756;52.826;6.214;2024-02-23T14:52:56;8.90;82.70
54938;DHT22;52756;52.826;6.214;2024-02-23T14:55:22;9.00;82.80
54938;DHT22;52756;52.826;6.214;2024-02-23T14:57:47;8.90;82.60
54938;DHT22;52756;52.826;6.214;2024-02-23T15:00:13;8.90;82.50
54938;DHT22;52756;52.826;6.214;2024-02-23T15:02:39;8.90;82.50
54938;DHT22;52756;52.826;6.214;2024-02-23T15:05:05;8.90;82.50
54938;DHT22;52756;52.826;6.214;2024-02-23T15:07:32;8.90;82.50
54938;DHT22;52756;52.826;6.214;2024-02-23T15:09:58;8.90;82.60
54938;DHT22;52756;52.826;6.214;2024-02-23T15:12:25;8.90;82.40
54938;DHT22;52756;52.826;6.214;2024-02-23T15:14:53;8.90;82.10
54938;DHT22;52756;52.826;6.214;2024-02-23T15:17:19;8.90;81.90
54938;DHT22;52756;52.826;6.214;2024-02-23T15:19:45;8.90;81.80
54938;DHT22;52756;52.826;6.214;2024-02-23T15:22:10;8.90;81.80
54938;DHT22;52756;52.826;6.214;2024-02-23T15:24:40;8.90;81.70
54938;DHT22;52756;52.826;6.214;2024-02-23T15:27:08;8.90;81.70
54938;DHT22;52756;52.826;6.214;2024-02-23T15:29:35;8.90;81.80
54938;DHT22;52756;52.826;6.214;2024-02-23T15:32:00;8.90;81.70
54938;DHT22;52756;52.826;6.214;2024-02-23T15:34:26;8.90;81.60
54938;DHT22;52756;52.826;6.214;2024-02-23T15:36:52;9.50;81.90
54938;DHT22;52756;52.826;6.214;2024-02-23T15:39:17;8.80;81.30
54938;DHT22;52756;52.826;6.214;2024-02-23T15:41:43;8.80;81.40